Time;durP1;ratioP1;P1;durP2;ratioP2;P2;SDS_P1;SDS_P2;PMS_P1;PMS_P2;Temp;Humidity;BMP_temperature;BMP_pressure;BME280_temperature;BME280_humidity;BME280_pressure;Samples;Min_cycle;Max_cycle;Signal;HPM_P1;HPM_P2
2021/08/10 00:01:11;;;;;;;4.53;2.70;;;;;;;14.47;62.43;100553.61;153972;1096;103187;-78
2021/08/10 00:04:16;;;;;;;4.77;2.67;;;;;;;14.43;62.46;100562.98;153929;1101;103275;-78
2021/08/10 00:07:22;;;;;;;5.07;2.77;;;;;;;14.41;62.45;100567.69;154005;1094;103572;-78
2021/08/10 00:10:27;;;;;;;3.85;2.80;;;;;;;14.41;62.60;100565.01;154151;1101;103132;-78
2021/08/10 00:13:32;;;;;;;3.77;2.47;;;;;;;14.41;63.06;100566.86;154052;1094;103476;-75
2021/08/10 00:16:38;;;;;;;5.20;2.60;;;;;;;14.40;62.80;100560.66;153983;1101;103267;-76
2021/08/10 00:19:43;;;;;;;5.37;2.17;;;;;;;14.45;63.16;100568.19;153986;1101;103261;-76
2021/08/10 00:22:48;;;;;;;4.33;2.53;;;;;;;14.47;63.01;100558.98;154015;1101;103236;-77
2021/08/10 00:25:53;;;;;;;5.40;2.60;;;;;;;14.50;63.30;100558.62;154060;1101;103120;-78
2021/08/10 00:28:57;;;;;;;4.30;2.50;;;;;;;14.50;63.16;100560.48;153971;1093;103184;-78
2021/08/10 00:32:02;;;;;;;5.05;2.40;;;;;;;14.49;63.06;100567.70;154035;1101;103164;-78
2021/08/10 00:35:08;;;;;;;6.03;2.70;;;;;;;14.46;63.42;100565.34;155274;1101;103363;-81
2021/08/10 00:38:14;;;;;;;4.63;2.60;;;;;;;14.39;63.39;100561.66;155004;1101;103134;-78
2021/08/10 00:41:20;;;;;;;3.90;2.80;;;;;;;14.32;63.46;100563.38;154334;1101;103124;-79
2021/08/10 00:44:28;;;;;;;5.10;2.60;;;;;;;14.23;63.31;100567.06;154571;1093;103128;-79
2021/08/10 00:47:34;;;;;;;7.20;2.60;;;;;;;14.14;63.44;100575.13;154118;1093;103130;-80
2021/08/10 00:50:39;;;;;;;3.40;2.40;;;;;;;14.07;63.67;100571.44;153979;1101;103280;-79
2021/08/10 00:53:46;;;;;;;5.70;2.50;;;;;;;14.08;63.62;100570.41;154023;1101;103110;-80
2021/08/10 00:56:55;;;;;;;3.10;2.60;;;;;;;14.09;63.63;100563.22;153976;1101;103113;-79
2021/08/10 01:00:10;;;;;;;3.40;2.50;;;;;;;14.10;63.63;100562.20;154060;1094;103122;-79
2021/08/10 01:03:16;;;;;;;5.33;2.60;;;;;;;14.10;63.77;100560.34;154173;1101;103572;-77
2021/08/10 01:06:30;;;;;;;5.00;2.60;;;;;;;14.07;63.45;100558.02;154020;1101;103519;-78
2021/08/10 01:09:46;;;;;;;3.77;2.70;;;;;;;14.00;63.59;100554.33;153968;1101;103227;-80
2021/08/10 01:13:02;;;;;;;3.05;2.60;;;;;;;13.94;63.75;100555.83;153979;1096;103211;-80
2021/08/10 01:16:21;;;;;;;3.70;2.80;;;;;;;13.89;63.68;100557.34;154033;1093;103128;-75
2021/08/10 01:19:45;;;;;;;4.70;2.80;;;;;;;13.84;63.74;100554.34;153974;1094;103190;-76
2021/08/10 01:22:54;;;;;;;7.03;2.83;;;;;;;13.80;63.84;100551.15;153986;1093;103601;-76
2021/08/10 01:26:06;;;;;;;4.73;2.53;;;;;;;13.78;64.32;100546.94;154016;1096;103104;-78
2021/08/10 01:29:29;;;;;;;4.50;2.30;;;;;;;13.79;64.02;100549.45;153955;1101;103192;-75
2021/08/10 01:32:38;;;;;;;2.90;2.35;;;;;;;13.81;64.11;100546.61;154014;1096;103161;-77
2021/08/10 01:35:46;;;;;;;5.83;2.87;;;;;;;13.84;64.40;100538.25;154059;1094;103125;-76
2021/08/10 01:38:56;;;;;;;6.90;3.77;;;;;;;13.82;64.17;100540.23;154014;1101;103194;-76
2021/08/10 01:42:02;;;;;;;4.17;2.93;;;;;;;13.79;63.94;100545.94;154054;1096;103147;-76
2021/08/10 01:45:11;;;;;;;7.70;3.20;;;;;;;13.77;64.16;100545.27;153972;1101;103210;-76
2021/08/10 01:48:18;;;;;;;4.37;2.80;;;;;;;13.73;64.09;100547.45;153985;1095;103142;-77
2021/08/10 01:51:27;;;;;;;5.37;3.07;;;;;;;13.68;64.18;100550.64;153995;1096;103494;-76
2021/08/10 01:54:33;;;;;;;4.30;3.20;;;;;;;13.62;64.79;100545.09;154001;1096;103226;-76
2021/08/10 01:57:38;;;;;;;5.20;3.00;;;;;;;13.57;64.46;100547.41;153993;1101;103122;-76
2021/08/10 02:00:45;;;;;;;5.10;2.90;;;;;;;13.51;64.52;100551.59;153996;1096;103139;-75
2021/08/10 02:03:51;;;;;;;4.55;2.60;;;;;;;13.53;64.65;100546.94;154024;1096;103193;-75
2021/08/10 02:06:57;;;;;;;4.67;3.00;;;;;;;13.57;64.45;100548.28;154021;1096;103164;-76
2021/08/10 02:10:06;;;;;;;3.73;2.90;;;;;;;13.58;64.73;100543.74;154036;1096;103218;-77
2021/08/10 02:13:12;;;;;;;4.17;3.07;;;;;;;13.58;64.49;100544.57;154035;1096;103198;-75
2021/08/10 02:16:20;;;;;;;5.00;3.00;;;;;;;13.55;64.62;100544.92;153991;1101;103144;-76
2021/08/10 02:19:26;;;;;;;6.07;3.30;;;;;;;13.54;64.69;100543.23;153953;1096;103208;-76
2021/08/10 02:22:33;;;;;;;4.90;2.95;;;;;;;13.53;64.58;100528.17;153982;1095;103101;-78
2021/08/10 02:25:41;;;;;;;5.97;3.00;;;;;;;13.52;64.94;100529.98;154066;1096;103261;-76
2021/08/10 02:28:48;;;;;;;5.60;3.10;;;;;;;13.51;64.75;100531.01;154065;1101;103218;-78
2021/08/10 02:31:54;;;;;;;4.53;3.17;;;;;;;13.46;64.93;100529.83;154079;1096;103567;-76
2021/08/10 02:35:03;;;;;;;5.05;3.15;;;;;;;13.43;65.14;100522.10;153937;1096;103137;-77
2021/08/10 02:38:11;;;;;;;4.27;2.87;;;;;;;13.39;65.11;100518.08;154029;1101;103484;-77
2021/08/10 02:41:21;;;;;;;6.17;3.07;;;;;;;13.39;65.04;100523.44;154101;1101;103103;-77
2021/08/10 02:44:32;;;;;;;3.73;2.77;;;;;;;13.34;65.25;100531.98;154127;1093;103169;-77
2021/08/10 02:47:48;;;;;;;6.03;3.53;;;;;;;13.32;65.24;100532.14;154094;1101;103208;-77
2021/08/10 02:50:53;;;;;;;4.17;3.23;;;;;;;13.31;65.20;100530.45;154230;1101;103218;-78
2021/08/10 02:54:00;;;;;;;4.93;2.87;;;;;;;13.30;65.14;100530.64;154137;1091;103150;-77
2021/08/10 02:57:13;;;;;;;23.57;4.20;;;;;;;13.23;65.08;100533.09;153964;1101;103303;-78
2021/08/10 03:00:19;;;;;;;4.77;3.30;;;;;;;13.21;65.30;100532.41;153976;1093;103217;-77
2021/08/10 03:03:28;;;;;;;5.43;3.40;;;;;;;13.19;65.02;100523.70;153951;1101;103565;-77
2021/08/10 03:06:34;;;;;;;4.00;3.10;;;;;;;13.15;65.23;100523.19;154006;1101;103221;-76
2021/08/10 03:09:39;;;;;;;3.80;3.20;;;;;;;13.13;65.30;100522.52;153963;1093;103247;-76
2021/08/10 03:12:49;;;;;;;4.37;2.83;;;;;;;13.11;65.34;100529.05;153965;1101;103182;-78
2021/08/10 03:15:57;;;;;;;3.17;2.40;;;;;;;13.10;65.27;100524.67;154122;1101;103208;-77
2021/08/10 03:19:05;;;;;;;3.90;2.90;;;;;;;13.16;65.31;100524.02;153987;1101;103275;-77
2021/08/10 03:22:11;;;;;;;4.65;2.90;;;;;;;13.19;65.32;100522.88;154068;1093;103129;-77
2021/08/10 03:25:18;;;;;;;7.10;3.20;;;;;;;13.21;65.18;100521.69;153987;1101;103603;-76
2021/08/10 03:28:27;;;;;;;5.27;3.20;;;;;;;13.20;65.76;100522.68;153999;1094;103126;-77
2021/08/10 03:31:33;;;;;;;3.70;3.13;;;;;;;13.20;65.59;100520.00;154042;1093;103245;-80
2021/08/10 03:34:39;;;;;;;6.17;3.40;;;;;;;13.20;65.87;100520.00;154029;1101;103210;-76
2021/08/10 03:37:46;;;;;;;6.55;3.05;;;;;;;13.20;65.85;100516.49;153991;1093;103145;-75
2021/08/10 03:40:53;;;;;;;4.90;3.07;;;;;;;13.19;65.60;100512.98;154010;1093;103196;-77
2021/08/10 03:43:58;;;;;;;5.33;3.37;;;;;;;13.20;65.57;100509.28;154007;1101;103273;-78
2021/08/10 03:47:04;;;;;;;3.77;2.97;;;;;;;13.19;66.15;100512.98;154016;1093;103193;-76
2021/08/10 03:50:11;;;;;;;5.30;2.80;;;;;;;13.25;65.84;100520.36;153991;1093;103126;-77
2021/08/10 03:53:16;;;;;;;4.80;2.93;;;;;;;13.34;65.90;100523.94;154013;1093;103197;-78
2021/08/10 03:56:25;;;;;;;4.85;3.00;;;;;;;13.46;66.00;100513.73;153984;1101;103238;-76
2021/08/10 03:59:32;;;;;;;5.57;3.17;;;;;;;13.62;65.80;100518.27;153996;1101;104330;-76
2021/08/10 04:02:39;;;;;;;4.57;3.20;;;;;;;13.75;66.32;100508.72;154029;1101;103228;-76
2021/08/10 04:05:49;;;;;;;3.80;3.10;;;;;;;13.90;65.94;100518.79;153979;1101;103192;-76
2021/08/10 04:08:55;;;;;;;4.50;3.00;;;;;;;14.05;66.10;100522.47;153966;1101;103153;-76
2021/08/10 04:12:00;;;;;;;5.33;3.17;;;;;;;14.19;66.01;100518.25;154005;1101;103104;-76
2021/08/10 04:15:06;;;;;;;4.73;3.00;;;;;;;14.30;65.64;100515.22;153979;1101;103295;-76
2021/08/10 04:18:14;;;;;;;3.97;2.87;;;;;;;14.46;66.12;100517.02;154002;1093;103177;-75
2021/08/10 04:21:26;;;;;;;4.90;2.70;;;;;;;14.67;65.98;100519.16;153982;1101;103205;-78
2021/08/10 04:24:32;;;;;;;7.67;3.17;;;;;;;14.88;65.74;100518.58;153956;1093;103141;-77
2021/08/10 04:27:37;;;;;;;4.30;3.00;;;;;;;15.10;65.74;100521.50;153992;1093;103112;-78
2021/08/10 04:30:45;;;;;;;4.00;3.30;;;;;;;15.23;65.86;100511.00;153988;1101;103280;-77
2021/08/10 04:33:52;;;;;;;5.20;2.97;;;;;;;15.37;66.16;100509.41;154013;1101;103198;-75
2021/08/10 04:36:58;;;;;;;5.23;3.17;;;;;;;15.56;65.50;100508.09;153964;1101;103096;-76
2021/08/10 04:40:04;;;;;;;4.60;3.20;;;;;;;15.73;65.55;100498.09;153940;1093;103118;-76
2021/08/10 04:43:40;;;;;;;4.90;3.03;;;;;;;15.99;65.54;100497.66;153993;1093;103169;-76
2021/08/10 04:46:45;;;;;;;5.17;3.00;;;;;;;16.17;65.73;100502.73;153953;1101;103264;-76
2021/08/10 04:49:50;;;;;;;5.35;2.80;;;;;;;16.37;65.98;100491.42;153994;1101;103230;-77
2021/08/10 04:52:55;;;;;;;4.37;2.60;;;;;;;16.58;65.60;100498.75;153958;1101;103174;-77
2021/08/10 04:56:01;;;;;;;5.23;2.70;;;;;;;16.79;65.93;100493.44;153984;1101;103160;-76
2021/08/10 04:59:07;;;;;;;3.37;3.00;;;;;;;17.03;65.87;100504.94;154015;1093;103501;-77
2021/08/10 05:02:14;;;;;;;5.03;3.10;;;;;;;17.25;66.06;100497.74;153956;1101;103481;-76
2021/08/10 05:05:19;;;;;;;5.43;2.97;;;;;;;17.45;66.08;100501.46;153962;1101;103212;-77
2021/08/10 05:08:24;;;;;;;4.87;2.77;;;;;;;17.64;65.88;100502.69;154048;1101;103102;-77
2021/08/10 05:11:29;;;;;;;4.45;2.90;;;;;;;17.79;65.82;100504.49;153989;1101;103116;-77
2021/08/10 05:14:35;;;;;;;4.17;2.70;;;;;;;17.96;66.08;100505.91;154010;1093;103181;-78
2021/08/10 05:17:40;;;;;;;3.90;2.63;;;;;;;18.14;65.97;100507.30;153970;1101;103688;-78
2021/08/10 05:20:46;;;;;;;3.77;3.00;;;;;;;18.32;66.10;100513.05;153988;1096;103158;-77
2021/08/10 05:23:51;;;;;;;5.43;3.03;;;;;;;18.54;66.32;100508.38;153944;1094;103124;-75
2021/08/10 05:26:56;;;;;;;4.80;3.23;;;;;;;18.79;66.21;100516.83;153988;1096;103126;-78
2021/08/10 05:30:02;;;;;;;5.25;3.20;;;;;;;19.08;66.03;100520.31;154045;1093;103196;-77
2021/08/10 05:33:07;;;;;;;4.35;3.00;;;;;;;19.34;66.12;100513.30;154105;1101;103283;-76
2021/08/10 05:36:13;;;;;;;4.75;3.30;;;;;;;19.58;65.86;100510.03;154116;1101;103131;-75
2021/08/10 05:39:18;;;;;;;5.50;2.73;;;;;;;19.72;65.42;100508.19;154034;1093;103118;-77
2021/08/10 05:42:23;;;;;;;3.63;2.97;;;;;;;19.69;65.56;100499.62;153993;1101;103132;-76
2021/08/10 05:45:29;;;;;;;5.40;3.30;;;;;;;19.71;65.97;100502.98;153987;1095;103187;-77
2021/08/10 05:48:34;;;;;;;3.33;2.73;;;;;;;19.74;65.40;100507.99;154314;1101;103270;-76
2021/08/10 05:51:40;;;;;;;5.50;3.00;;;;;;;19.86;65.77;100495.52;154142;1093;103151;-76
2021/08/10 05:54:45;;;;;;;3.85;2.90;;;;;;;20.00;65.60;100491.75;154050;1101;103179;-76
2021/08/10 05:57:50;;;;;;;3.83;2.70;;;;;;;20.10;65.22;100490.50;154017;1093;103626;-76
2021/08/10 06:00:56;;;;;;;4.17;2.83;;;;;;;20.19;65.41;100494.66;154089;1092;103123;-77
2021/08/10 06:04:01;;;;;;;3.00;2.63;;;;;;;20.26;65.10;100494.64;154082;1093;103163;-76
2021/08/10 06:07:07;;;;;;;3.70;2.60;;;;;;;20.28;65.03;100481.70;154026;1101;103116;-76
2021/08/10 06:10:15;;;;;;;4.53;2.53;;;;;;;20.30;64.91;100488.57;153991;1101;103464;-77
2021/08/10 06:13:23;;;;;;;2.90;2.20;;;;;;;20.29;64.50;100480.68;154022;1101;103127;-77
2021/08/10 06:16:28;;;;;;;4.10;2.37;;;;;;;20.25;64.59;100479.44;154073;1093;103232;-77
2021/08/10 06:19:37;;;;;;;5.40;2.23;;;;;;;20.24;64.65;100478.58;154055;1101;103254;-75
2021/08/10 06:22:44;;;;;;;4.57;2.13;;;;;;;20.23;64.38;100479.64;154035;1093;103148;-76
2021/08/10 06:25:49;;;;;;;4.90;2.70;;;;;;;20.26;64.30;100481.91;153991;1101;103133;-76
2021/08/10 06:28:56;;;;;;;4.77;2.40;;;;;;;20.25;64.19;100482.97;153976;1091;103208;-75
2021/08/10 06:32:01;;;;;;;4.77;2.57;;;;;;;20.25;64.00;100488.39;154006;1093;103206;-75
2021/08/10 06:35:07;;;;;;;3.65;2.20;;;;;;;20.27;63.93;100483.59;154040;1101;103286;-76
2021/08/10 06:38:12;;;;;;;3.33;2.03;;;;;;;20.32;64.08;100482.95;154011;1101;103068;-76
2021/08/10 06:41:18;;;;;;;5.55;1.90;;;;;;;20.40;63.82;100480.03;154018;1101;103240;-77
2021/08/10 06:44:37;;;;;;;4.47;2.00;;;;;;;20.51;63.77;100473.11;153986;1093;103218;-76
2021/08/10 06:47:42;;;;;;;2.13;1.80;;;;;;;20.61;63.31;100468.09;154028;1093;103096;-76
2021/08/10 06:50:48;;;;;;;2.75;1.90;;;;;;;20.69;63.11;100473.30;154058;1101;103289;-78
2021/08/10 06:53:53;;;;;;;3.97;1.87;;;;;;;20.76;63.38;100473.25;153988;1093;103633;-77
2021/08/10 06:57:00;;;;;;;3.27;2.30;;;;;;;20.78;63.40;100472.02;154035;1101;103116;-76
2021/08/10 07:00:07;;;;;;;3.23;2.10;;;;;;;20.77;63.36;100483.89;153982;1101;103246;-76
2021/08/10 07:03:14;;;;;;;3.80;2.80;;;;;;;20.71;63.42;100476.63;154008;1093;103285;-76
2021/08/10 07:06:20;;;;;;;5.17;2.43;;;;;;;20.64;63.45;100475.80;153951;1101;103270;-78
2021/08/10 07:09:25;;;;;;;4.60;1.90;;;;;;;20.55;63.34;100477.05;154188;1101;103554;-74
2021/08/10 07:12:30;;;;;;;3.27;2.20;;;;;;;20.51;63.43;100476.64;154072;1093;103099;-74
2021/08/10 07:15:36;;;;;;;2.40;1.90;;;;;;;20.50;63.63;100474.16;153980;1093;103489;-75
2021/08/10 07:18:46;;;;;;;5.53;2.57;;;;;;;20.52;63.63;100474.78;154025;1093;103106;-75
2021/08/10 07:21:55;;;;;;;3.43;2.87;;;;;;;20.60;63.78;100474.58;153971;1101;103217;-75
2021/08/10 07:25:06;;;;;;;3.30;2.07;;;;;;;20.74;63.83;100472.64;154011;1093;103205;-76
2021/08/10 07:28:09;;;;;;;3.87;2.20;;;;;;;;;;154119;1101;103233;-77
2021/08/10 07:31:14;;;;;;;3.13;2.10;;;;;;;21.08;63.94;100486.89;153989;1101;103193;-78
2021/08/10 07:34:20;;;;;;;4.35;2.20;;;;;;;21.28;64.02;100481.34;154026;1093;103234;-75
2021/08/10 07:37:26;;;;;;;3.77;2.30;;;;;;;21.46;64.05;100470.62;153946;1101;103196;-74
2021/08/10 07:40:31;;;;;;;3.60;2.30;;;;;;;21.62;63.94;100471.13;154100;1101;103112;-74
2021/08/10 07:43:38;;;;;;;3.45;2.35;;;;;;;21.73;63.85;100473.96;153946;1101;103188;-75
2021/08/10 07:46:44;;;;;;;3.07;2.20;;;;;;;21.80;63.86;100468.45;153926;1093;103547;-75
2021/08/10 07:49:54;;;;;;;2.57;2.37;;;;;;;21.84;63.95;100469.67;154060;1093;103188;-74
2021/08/10 07:52:59;;;;;;;4.27;2.60;;;;;;;21.88;63.52;100467.34;153953;1101;103374;-75
2021/08/10 07:56:05;;;;;;;3.70;2.30;;;;;;;21.99;63.82;100468.52;153983;1101;103126;-75
2021/08/10 07:59:10;;;;;;;3.50;2.50;;;;;;;22.13;62.80;100480.91;153942;1101;103189;-75
2021/08/10 08:02:15;;;;;;;2.90;2.20;;;;;;;22.27;62.58;100470.79;153941;1093;103122;-75
2021/08/10 08:05:20;;;;;;;2.83;2.10;;;;;;;22.48;62.29;100469.48;153937;1101;103250;-76
2021/08/10 08:08:27;;;;;;;3.90;2.40;;;;;;;22.70;61.94;100467.16;153965;1093;103319;-75
2021/08/10 08:11:33;;;;;;;5.10;2.40;;;;;;;22.80;61.79;100466.61;154015;1101;103137;-74
2021/08/10 08:14:37;;;;;;;3.10;2.07;;;;;;;22.93;61.64;100471.89;153939;1101;103109;-75
2021/08/10 08:17:43;;;;;;;5.05;2.40;;;;;;;23.12;61.43;100470.81;153955;1101;103186;-74
2021/08/10 08:20:49;;;;;;;2.93;2.20;;;;;;;23.33;61.53;100466.75;154062;1101;103209;-74
2021/08/10 08:23:56;;;;;;;3.40;2.40;;;;;;;23.49;61.47;100465.23;154042;1101;103305;-76
2021/08/10 08:27:02;;;;;;;4.30;2.43;;;;;;;23.71;60.71;100468.25;154045;1093;103103;-79
2021/08/10 08:30:09;;;;;;;2.77;2.20;;;;;;;23.92;60.86;100463.31;154158;1093;103159;-80
2021/08/10 08:33:14;;;;;;;16.53;8.10;;;;;;;24.08;60.87;100475.42;154188;1101;103122;-80
2021/08/10 08:36:19;;;;;;;6.73;4.20;;;;;;;24.24;60.87;100477.41;154405;1101;103224;-79
2021/08/10 08:39:24;;;;;;;11.30;6.90;;;;;;;24.39;60.52;100473.39;154166;1093;103145;-79
2021/08/10 08:42:29;;;;;;;5.93;3.30;;;;;;;24.49;59.96;100463.51;154088;1101;103275;-77
2021/08/10 08:45:35;;;;;;;6.87;4.60;;;;;;;24.56;60.41;100459.84;154224;1101;103116;-80
2021/08/10 08:48:45;;;;;;;2.77;2.30;;;;;;;24.63;59.56;100466.83;154267;1101;103122;-77
2021/08/10 08:51:51;;;;;;;4.83;2.33;;;;;;;24.80;59.24;100460.63;154263;1093;103268;-77
2021/08/10 08:54:57;;;;;;;4.17;2.30;;;;;;;24.97;59.30;100456.05;154522;1101;103187;-79
2021/08/10 08:58:03;;;;;;;2.57;1.97;;;;;;;25.06;58.97;100449.13;154361;1093;103282;-77
2021/08/10 09:01:12;;;;;;;2.10;1.80;;;;;;;25.14;58.58;100452.55;154009;1093;103513;-77
2021/08/10 09:04:17;;;;;;;2.33;1.70;;;;;;;25.14;58.11;100449.81;154041;1093;103216;-77
2021/08/10 09:07:31;;;;;;;2.40;1.80;;;;;;;25.17;58.14;100446.58;154067;1093;103227;-78
2021/08/10 09:10:36;;;;;;;2.57;1.70;;;;;;;25.19;58.14;100450.73;154279;1101;103211;-77
2021/08/10 09:13:57;;;;;;;3.03;1.80;;;;;;;25.18;57.93;100449.07;154213;1101;103190;-78
2021/08/10 09:17:11;;;;;;;4.23;1.90;;;;;;;25.18;57.56;100446.34;154294;1101;103150;-77
2021/08/10 09:20:22;;;;;;;5.00;1.80;;;;;;;25.22;56.47;100444.80;154279;1093;103123;-79
2021/08/10 09:23:40;;;;;;;2.93;1.70;;;;;;;25.22;56.60;100438.48;155752;1093;103214;-78
2021/08/10 09:26:45;;;;;;;1.80;1.60;;;;;;;25.25;56.13;100424.35;153967;1101;103541;-79
2021/08/10 09:29:56;;;;;;;1.50;1.40;;;;;;;25.27;56.19;100433.16;153993;1101;103189;-79
2021/08/10 09:33:02;;;;;;;2.45;1.70;;;;;;;25.27;55.59;100417.59;154208;1093;103155;-78
2021/08/10 09:36:22;;;;;;;5.07;1.60;;;;;;;25.30;55.73;100418.98;154072;1101;103176;-78
2021/08/10 09:39:35;;;;;;;3.43;1.90;;;;;;;25.37;55.54;100418.84;154277;1093;103245;-78
2021/08/10 09:42:41;;;;;;;3.30;1.50;;;;;;;25.54;55.13;100418.83;155115;1094;103177;-78
2021/08/10 09:45:46;;;;;;;1.55;1.30;;;;;;;25.74;54.00;100419.16;154284;1101;103564;-78
2021/08/10 09:48:57;;;;;;;1.97;1.30;;;;;;;25.94;53.57;100404.17;154404;1101;103123;-78
2021/08/10 09:52:03;;;;;;;1.40;1.13;;;;;;;26.17;53.52;100405.86;154203;1093;103182;-80
2021/08/10 09:55:14;;;;;;;1.43;1.20;;;;;;;26.36;52.42;100406.38;154260;1101;103505;-78
2021/08/10 09:58:18;;;;;;;3.60;1.30;;;;;;;26.54;52.42;100405.22;154207;1101;103192;-78
2021/08/10 10:01:36;;;;;;;1.80;1.40;;;;;;;26.69;52.86;100397.22;154028;1101;103195;-77
2021/08/10 10:04:49;;;;;;;1.70;1.50;;;;;;;26.83;52.17;100392.19;153946;1101;103743;-77
2021/08/10 10:08:17;;;;;;;1.90;1.60;;;;;;;26.94;52.47;100382.97;154002;1093;103124;-78
2021/08/10 10:11:22;;;;;;;3.17;1.57;;;;;;;27.02;52.16;100384.41;154017;1093;103140;-76
2021/08/10 10:14:29;;;;;;;1.70;1.40;;;;;;;27.11;51.56;100376.56;153956;1101;103264;-77
2021/08/10 10:17:35;;;;;;;4.63;1.60;;;;;;;27.20;51.28;100378.56;153999;1093;103122;-76
2021/08/10 10:20:44;;;;;;;2.33;1.60;;;;;;;27.27;51.11;100374.80;154036;1101;103125;-78
2021/08/10 10:23:53;;;;;;;2.77;1.70;;;;;;;27.34;51.29;100373.50;153919;1093;103224;-77
2021/08/10 10:27:03;;;;;;;2.30;1.80;;;;;;;27.44;51.80;100369.19;153993;1101;103179;-78
2021/08/10 10:30:09;;;;;;;4.50;1.55;;;;;;;27.51;51.40;100369.80;153952;1101;103116;-77
2021/08/10 10:33:16;;;;;;;1.87;1.60;;;;;;;27.52;49.95;100368.70;154047;1101;103103;-78
2021/08/10 10:36:21;;;;;;;3.50;1.60;;;;;;;27.47;50.46;100364.02;154152;1101;103265;-79
2021/08/10 10:39:30;;;;;;;2.00;1.70;;;;;;;27.49;50.37;100369.24;154339;1093;103154;-78
2021/08/10 10:42:35;;;;;;;2.40;1.80;;;;;;;27.52;50.14;100369.55;154129;1093;103140;-79
2021/08/10 10:45:41;;;;;;;1.95;1.65;;;;;;;27.52;50.23;100365.95;154160;1101;103310;-78
2021/08/10 10:48:47;;;;;;;3.47;1.80;;;;;;;27.56;50.36;100364.34;154042;1101;103127;-77
2021/08/10 10:52:09;;;;;;;3.80;1.70;;;;;;;27.65;50.05;100354.53;154127;1101;103121;-78
2021/08/10 10:55:14;;;;;;;3.63;1.90;;;;;;;27.80;50.10;100356.55;153940;1093;103224;-81
2021/08/10 10:58:33;;;;;;;2.87;1.80;;;;;;;27.81;49.77;100348.06;153987;1101;103228;-78
2021/08/10 11:01:37;;;;;;;3.93;1.87;;;;;;;27.71;49.14;100345.25;154072;1101;103256;-80
2021/08/10 11:05:27;;;;;;;2.20;2.00;;;;;;;27.61;49.47;100340.53;154219;1101;103141;-80
2021/08/10 11:08:48;;;;;;;2.30;1.80;;;;;;;27.51;49.27;100336.91;154165;1101;103141;-80
2021/08/10 11:11:55;;;;;;;3.40;2.57;;;;;;;27.48;49.69;100337.42;153975;1093;103690;-78
2021/08/10 11:15:00;;;;;;;4.67;1.90;;;;;;;27.48;49.93;100326.47;154014;1093;103217;-81
2021/08/10 11:18:26;;;;;;;2.60;2.00;;;;;;;27.50;49.73;100327.84;154262;1093;103250;-78
2021/08/10 11:21:31;;;;;;;2.73;1.97;;;;;;;27.52;49.63;100316.63;154051;1101;103243;-83
2021/08/10 11:24:36;;;;;;;1.90;1.80;;;;;;;27.57;49.42;100313.92;154015;1093;103122;-78
2021/08/10 11:27:44;;;;;;;4.23;1.63;;;;;;;27.53;48.32;100301.84;153998;1094;103121;-78
2021/08/10 11:30:49;;;;;;;2.17;1.73;;;;;;;27.37;48.33;100295.45;154011;1093;103200;-80
2021/08/10 11:33:54;;;;;;;2.43;1.93;;;;;;;27.15;48.05;100295.52;154036;1093;103153;-77
2021/08/10 11:37:27;;;;;;;2.80;2.03;;;;;;;26.91;48.35;100298.63;154038;1101;103193;-82
2021/08/10 11:40:37;;;;;;;3.40;2.30;;;;;;;26.75;48.70;100294.92;154065;1093;103237;-84
2021/08/10 11:43:43;;;;;;;2.33;1.73;;;;;;;26.69;48.90;100287.73;154084;1101;103186;-76
2021/08/10 11:46:49;;;;;;;3.70;2.25;;;;;;;26.67;48.68;100289.09;153965;1101;103550;-78
2021/08/10 11:49:56;;;;;;;3.20;2.57;;;;;;;26.66;48.59;100285.53;153960;1101;103677;-77
2021/08/10 11:53:02;;;;;;;4.07;1.90;;;;;;;26.65;48.35;100264.70;154044;1101;103129;-78
2021/08/10 11:56:23;;;;;;;3.43;2.00;;;;;;;26.60;48.97;100246.34;153947;1093;103097;-78
2021/08/10 11:59:27;;;;;;;;;;;;;;;26.58;48.80;100253.95;153970;1101;103139;-78
2021/08/10 12:02:31;;;;;;;3.37;1.90;;;;;;;26.46;49.06;100253.27;153981;1101;103259;-78
2021/08/10 12:05:36;;;;;;;2.10;1.90;;;;;;;26.30;49.09;100254.22;153997;1093;103348;-77
2021/08/10 12:08:42;;;;;;;4.10;2.20;;;;;;;26.04;49.06;100254.77;153990;1101;103101;-77
2021/08/10 12:11:52;;;;;;;10.53;2.80;;;;;;;25.73;50.13;100248.08;154091;1101;103190;-77
2021/08/10 12:14:57;;;;;;;3.07;2.30;;;;;;;25.33;51.52;100248.31;153945;1093;103126;-76
2021/08/10 12:18:01;;;;;;;7.55;2.70;;;;;;;24.93;51.61;100266.53;153982;1101;103211;-75
2021/08/10 12:21:07;;;;;;;6.53;2.90;;;;;;;24.66;53.00;100283.55;153917;1101;103189;-75
2021/08/10 12:24:27;;;;;;;4.13;2.67;;;;;;;24.41;53.60;100297.52;154005;1101;103125;-77
2021/08/10 12:27:33;;;;;;;5.85;3.25;;;;;;;24.00;54.76;100306.77;153981;1101;103135;-76
2021/08/10 12:30:39;;;;;;;4.80;3.30;;;;;;;23.37;56.40;100292.84;153920;1093;103203;-81
2021/08/10 12:33:51;;;;;;;5.70;3.50;;;;;;;23.00;55.86;100273.13;153954;1093;103483;-77
2021/08/10 12:36:55;;;;;;;3.23;2.93;;;;;;;23.11;55.69;100278.64;153975;1093;103598;-81
2021/08/10 12:40:01;;;;;;;4.70;3.45;;;;;;;23.34;56.24;100274.25;154032;1093;103096;-78
2021/08/10 12:43:06;;;;;;;3.60;2.87;;;;;;;23.56;56.29;100268.19;153953;1101;103273;-76
2021/08/10 12:46:30;;;;;;;3.70;2.95;;;;;;;23.77;55.48;100264.86;153945;1093;103124;-80
2021/08/10 12:49:36;;;;;;;4.40;3.00;;;;;;;23.97;55.83;100258.20;154149;1093;103193;-79
2021/08/10 12:52:45;;;;;;;4.13;3.10;;;;;;;24.05;56.96;100266.81;154350;1093;103229;-78
2021/08/10 12:55:53;;;;;;;4.83;3.43;;;;;;;23.94;57.29;100253.23;153969;1093;103115;-77
2021/08/10 12:58:58;;;;;;;3.70;2.77;;;;;;;23.82;56.73;100250.54;154028;1093;103189;-76
2021/08/10 13:02:03;;;;;;;3.70;3.03;;;;;;;23.77;56.51;100234.89;153933;1093;103110;-76
2021/08/10 13:05:11;;;;;;;4.83;3.13;;;;;;;23.72;57.21;100246.49;153968;1101;103116;-79
2021/08/10 13:08:15;;;;;;;4.13;3.20;;;;;;;23.59;57.93;100227.69;153975;1101;103250;-76
2021/08/10 13:11:24;;;;;;;3.80;3.10;;;;;;;23.48;58.00;100214.91;154111;1101;103129;-77
2021/08/10 13:14:29;;;;;;;4.87;2.90;;;;;;;23.47;58.42;100205.11;154046;1101;103116;-74
2021/08/10 13:17:39;;;;;;;4.70;2.95;;;;;;;23.47;58.30;100213.28;154016;1101;103473;-75
2021/08/10 13:20:54;;;;;;;4.57;3.40;;;;;;;23.53;58.83;100229.47;154018;1101;103134;-74
2021/08/10 13:24:09;;;;;;;4.75;3.30;;;;;;;23.47;59.24;100249.50;154089;1096;103509;-75
2021/08/10 13:27:27;;;;;;;4.00;3.53;;;;;;;23.31;59.17;100244.79;154057;1101;103129;-77
2021/08/10 13:30:32;;;;;;;6.05;3.45;;;;;;;23.13;59.07;100232.96;154057;1093;103154;-77
2021/08/10 13:33:56;;;;;;;4.03;3.40;;;;;;;22.96;59.37;100248.30;153999;1101;103220;-76
2021/08/10 13:37:03;;;;;;;4.10;3.40;;;;;;;22.77;59.70;100263.03;154104;1096;103572;-77
2021/08/10 13:40:14;;;;;;;40.77;19.23;;;;;;;22.60;60.22;100285.48;153991;1096;103261;-77
2021/08/10 13:43:19;;;;;;;11.70;7.05;;;;;;;22.49;60.55;100294.42;154171;1101;103195;-79
2021/08/10 13:46:28;;;;;;;5.53;3.77;;;;;;;22.43;61.00;100288.02;154142;1101;103125;-79
2021/08/10 13:49:33;;;;;;;5.00;3.60;;;;;;;22.48;61.38;100292.75;154207;1095;103554;-77
2021/08/10 13:52:37;;;;;;;4.60;3.80;;;;;;;22.49;61.10;100269.95;154154;1101;103125;-77
2021/08/10 13:55:42;;;;;;;5.07;3.43;;;;;;;22.46;60.37;100252.22;154280;1101;103413;-73
2021/08/10 13:58:47;;;;;;;4.43;3.67;;;;;;;22.63;61.10;100244.20;154238;1101;103135;-71
2021/08/10 14:01:55;;;;;;;4.20;3.45;;;;;;;22.84;61.46;100223.78;154015;1101;103132;-73
2021/08/10 14:04:59;;;;;;;4.63;3.70;;;;;;;22.91;61.13;100223.68;153998;1101;103101;-76
2021/08/10 14:08:05;;;;;;;3.83;3.43;;;;;;;23.01;61.01;100221.20;154093;1096;103201;-75
2021/08/10 14:11:10;;;;;;;4.67;3.70;;;;;;;23.16;61.32;100207.16;154021;1096;103268;-77
2021/08/10 14:14:15;;;;;;;3.53;3.23;;;;;;;23.29;61.28;100193.30;154174;1101;103073;-76